FW5171 Weather Reports


Display with metric or nautical units.
time (UTC)temp
F
wind
direction
speed
MPH
gust
MPH
rain 1hr
in
rain 24hr
in
rain mn
in
humidity
%
barometer
mb
20191022183155 69 62 0.0 3.0 0.00 1.41 1.39 74 1008.1
20191022182545 69 246 0.0 6.0 0.00 1.41 1.39 73 1008.3
20191022182047 69 113 2.0 8.0 0.00 1.41 1.39 72 1008.1
20191022181734 69 113 2.0 5.0 0.00 1.41 1.39 74 1008.1
20191022181041 68 162 0.0 1.0 0.00 1.41 1.39 75 1008.2
20191022180540 68 172 0.0 2.0 0.00 1.41 1.39 78 1008.2
20191022180103 68 165 1.0 2.0 0.00 1.41 1.39 77 1008.4
20191022175540 68 277 1.0 2.0 0.00 1.41 1.39 78 1008.3
20191022175037 68 254 1.0 2.0 0.00 1.41 1.39 78 1008.3
20191022174035 68 112 0.0 1.0 0.00 1.41 1.39 79 1008.5
20191022173109 67 84 0.0 3.0 0.00 1.41 1.39 82 1008.7
20191022172034 67 67 1.0 7.0 0.00 1.41 1.39 81 1008.9
20191022171034 66 330 3.0 6.0 0.00 1.41 1.39 82 1009.1
20191022170053 65 283 1.0 7.0 0.00 1.41 1.39 85 1009.1
20191022165525 65 152 3.0 7.0 0.00 1.43 1.39 87 1009.2
20191022165025 65 82 2.0 5.0 0.00 1.43 1.39 88 1009.4
20191022164658 64 141 1.0 3.0 0.00 1.43 1.39 88 1009.5
20191022164032 64 238 0.0 1.0 0.00 1.43 1.39 89 1009.7
20191022163528 63 238 0.0 2.0 0.00 1.43 1.39 89 1009.8
20191022163055 63 186 0.0 2.0 0.01 1.43 1.39 91 1009.7
20191022162528 62 128 0.0 3.0 0.01 1.43 1.39 93 1009.8
20191022162029 62 151 2.0 6.0 0.01 1.43 1.39 93 1009.8
20191022161532 61 136 3.0 6.0 0.01 1.43 1.39 93 1009.7
20191022161021 61 79 4.0 6.0 0.01 1.43 1.39 93 1009.7
20191022160528 61 108 4.0 5.0 0.01 1.43 1.39 94 1009.9
20191022155518 61 124 2.0 5.0 0.01 1.43 1.39 94 1009.6
20191022154520 61 122 1.0 4.0 0.12 1.43 1.39 94 1009.5
20191022153526 61 161 3.0 13.0 0.12 1.43 1.39 93 1009.9
20191022152516 62 74 9.0 13.0 0.13 1.42 1.38 92 1009.7
20191022151544 62 165 1.0 1.0 0.21 1.42 1.38 96 1009.7
20191022151020 62 354 0.0 3.0 0.24 1.42 1.38 95 1009.4
20191022150523 62 343 1.0 4.0 0.34 1.42 1.38 95 1009.5
20191022150018 62 69 1.0 8.0 0.42 1.42 1.38 94 1009.6
20191022145513 62 340 4.0 14.0 0.50 1.44 1.38 94 1009.8
20191022145018 63 292 10.0 16.0 0.53 1.38 1.32 94 1010.3
20191022144526 62 303 10.0 16.0 0.52 1.33 1.27 97 1010.1
20191022144014 62 283 4.0 6.0 0.64 1.33 1.27 98 1009.8
20191022143509 62 291 3.0 6.0 0.69 1.33 1.27 99 1009.6
20191022143026 61 132 0.0 7.0 0.76 1.33 1.27 99 1009.4
20191022142508 61 276 3.0 7.0 0.75 1.31 1.25 99 1009.4
20191022142007 61 287 4.0 6.0 0.69 1.25 1.19 99 1009.3
20191022141006 61 267 1.0 4.0 0.63 1.19 1.12 98 1009.3
20191022140010 61 129 0.0 1.0 0.45 1.01 0.95 98 1009.4
20191022135003 61 276 0.0 1.0 0.30 0.86 0.79 98 1010.0
20191022134005 61 189 0.0 1.0 0.12 0.68 0.61 98 1010.3
20191022133003 61 261 0.0 1.0 0.04 0.57 0.51 98 1010.2
20191022131103 61 262 1.0 3.0 0.05 0.56 0.50 98 1010.3
20191022130602 61 190 0.0 1.0 0.05 0.56 0.50 98 1010.2
20191022130337 61 134 0.0 1.0 0.06 0.56 0.50 98 1010.2
20191022125559 61 321 0.0 1.0 0.08 0.56 0.50 98 1010.2
20191022124902 61 342 0.0 2.0 0.17 0.56 0.49 98 1010.3
20191022123558 60 290 1.0 3.0 0.20 0.55 0.48 98 1010.5
20191022122556 60 284 1.0 2.0 0.22 0.53 0.46 98 1010.6
20191022121637 60 257 0.0 2.0 0.25 0.52 0.45 98 1010.4
20191022120555 60 267 0.0 1.0 0.27 0.51 0.44 98 1010.4
20191022120219 60 268 0.0 1.0 0.28 0.50 0.43 98 1010.6
20191022115555 60 270 1.0 2.0 0.28 0.48 0.41 99 1010.5
20191022115056 60 298 1.0 2.0 0.26 0.43 0.36 99 1010.5
20191022114637 60 289 0.0 3.0 0.21 0.38 0.31 99 1010.5
20191022114055 60 289 0.0 5.0 0.19 0.36 0.28 98 1010.4
20191022113553 60 275 4.0 5.0 0.19 0.35 0.28 98 1010.7
20191022113204 60 334 0.0 1.0 0.18 0.33 0.26 98 1010.6
20191022112559 60 335 0.0 1.0 0.16 0.31 0.24 98 1010.5
20191022112057 60 311 0.0 1.0 0.15 0.30 0.23 99 1010.6
20191022111630 60 326 1.0 1.0 0.13 0.27 0.20 99 1010.7
20191022111053 60 108 0.0 1.0 0.11 0.25 0.18 99 1010.8
20191022110135 60 249 0.0 2.0 0.07 0.21 0.14 98 1011.0
20191022105058 60 283 1.0 2.0 0.03 0.17 0.10 98 1011.0
20191022104049 60 280 0.0 1.0 0.03 0.17 0.10 98 1011.2
20191022103255 60 285 1.0 2.0 0.02 0.15 0.08 98 1011.3
20191022102046 60 93 1.0 2.0 0.01 0.14 0.07 98 1011.2
20191022101631 60 82 0.0 2.0 0.01 0.14 0.07 98 1011.2
20191022101047 60 103 0.0 1.0 0.01 0.14 0.07 98 1011.4
20191022100552 60 160 0.0 1.0 0.01 0.14 0.07 98 1011.4
20191022100111 60 160 0.0 0.0 0.01 0.14 0.07 98 1011.5
20191022095544 60 160 0.0 0.0 0.01 0.14 0.07 98 1011.7
20191022095044 60 160 0.0 0.0 0.02 0.14 0.07 98 1011.9
20191022094649 60 160 0.0 1.0 0.02 0.14 0.07 98 1011.7
20191022094047 60 160 0.0 1.0 0.02 0.14 0.07 98 1011.7
20191022093544 60 261 0.0 2.0 0.01 0.13 0.06 98 1012.0
20191022093113 60 264 1.0 2.0 0.01 0.13 0.06 98 1011.8
20191022092557 60 263 0.0 2.0 0.02 0.13 0.06 98 1011.8
20191022091611 60 92 1.0 2.0 0.02 0.13 0.06 98 1011.7
20191022090546 60 105 0.0 2.0 0.03 0.13 0.06 98 1011.6
20191022085542 60 103 1.0 2.0 0.04 0.13 0.06 98 1011.6
20191022083539 60 158 0.0 1.0 0.04 0.12 0.05 98 1012.0
20191022083112 60 157 0.0 1.0 0.04 0.12 0.05 98 1012.1
20191022082538 60 157 1.0 1.0 0.03 0.11 0.04 98 1012.1
20191022082051 60 117 0.0 1.0 0.03 0.11 0.04 98 1012.1
20191022081631 60 228 0.0 1.0 0.03 0.11 0.04 98 1012.2
20191022081038 60 229 0.0 1.0 0.02 0.10 0.03 98 1012.3
20191022080543 60 134 0.0 2.0 0.02 0.10 0.03 98 1012.2
20191022080124 60 118 1.0 2.0 0.01 0.09 0.02 98 1012.2
20191022075536 60 154 0.0 1.0 0.02 0.09 0.02 98 1012.5
20191022075036 60 155 0.0 1.0 0.02 0.09 0.02 98 1012.5
20191022074706 60 155 0.0 1.0 0.02 0.09 0.02 98 1012.6
20191022074040 60 155 0.0 0.0 0.02 0.09 0.02 98 1012.7
20191022073122 60 155 1.0 1.0 0.01 0.08 0.01 98 1012.9
20191022072036 60 67 0.0 1.0 0.01 0.08 0.01 98 1013.1
20191022071033 60 65 1.0 3.0 0.01 0.08 0.01 98 1013.1
20191022070050 60 96 2.0 5.0 0.01 0.08 0.01 98 1013.4
20191022065042 60 112 2.0 4.0 0.00 0.07 0.00 98 1014.0
20191022064702 60 84 2.0 4.0 0.00 0.07 0.00 98 1014.1
20191022064035 60 104 0.0 2.0 0.00 0.07 0.00 98 1014.3
20191022063534 60 118 0.0 2.0 0.00 0.07 0.00 98 1014.3
20191022063108 60 117 1.0 2.0 0.00 0.07 0.00 98 1014.1
20191022062529 60 248 0.0 2.0 0.00 0.07 0.00 98 1014.0
20191022062028 60 248 1.0 2.0 0.00 0.07 0.00 98 1014.0
20191022061600 60 135 0.0 1.0 0.00 0.07 0.00 98 1013.7
20191022061027 60 140 1.0 1.0 0.00 0.07 0.00 98 1013.8
20191022060527 60 224 0.0 1.0 0.00 0.07 0.00 98 1013.9
20191022060106 60 263 0.0 1.0 0.00 0.07 0.00 98 1014.0
20191022055526 60 262 0.0 2.0 0.00 0.07 0.00 98 1014.1
20191022054555 60 278 1.0 2.0 0.00 0.07 0.00 98 1014.5
20191022053530 60 190 0.0 2.0 0.00 0.07 0.00 98 1014.5
20191022052528 60 134 0.0 1.0 0.00 0.07 0.00 98 1014.5
20191022051550 60 135 0.0 1.0 0.00 0.07 0.00 98 1014.7
20191022050521 60 271 1.0 4.0 0.00 0.07 0.00 98 1014.9
20191022050052 60 299 2.0 4.0 0.00 0.07 0.00 98 1014.7
20191022045520 60 277 2.0 3.0 0.00 0.07 0.00 98 1014.9
20191022044603 60 305 1.0 2.0 0.00 0.07 0.00 98 1015.2
20191022044021 60 289 0.0 2.0 0.00 0.07 0.00 98 1015.4
20191022043517 60 206 0.0 2.0 0.00 0.07 0.00 98 1015.6
20191022043101 60 277 1.0 2.0 0.00 0.07 0.00 98 1015.5
20191022042515 60 258 0.0 2.0 0.00 0.07 0.00 98 1015.5
20191022042015 60 271 0.0 2.0 0.00 0.07 0.00 98 1015.4
20191022041014 60 203 0.0 1.0 0.00 0.07 0.00 98 1015.4
20191022040021 60 146 0.0 2.0 0.00 0.07 0.00 98 1015.7
20191022035013 60 95 1.0 2.0 0.00 0.07 0.07 98 1016.2
20191022034012 60 149 0.0 1.0 0.00 0.07 0.07 98 1016.6
20191022033024 60 141 0.0 1.0 0.00 0.07 0.07 98 1016.5
20191022032011 60 262 0.0 1.0 0.00 0.07 0.07 97 1016.6
20191022031536 60 344 0.0 1.0 0.00 0.07 0.07 97 1016.6
20191022031010 60 344 0.0 1.0 0.00 0.07 0.07 98 1016.6
20191022030514 60 347 0.0 1.0 0.00 0.07 0.07 98 1016.7
20191022030024 60 345 0.0 1.0 0.00 0.07 0.07 98 1016.7
20191022025515 60 345 0.0 1.0 0.00 0.07 0.07 98 1016.8
20191022025012 60 6 1.0 1.0 0.00 0.07 0.07 98 1016.8
20191022024543 60 9 0.0 1.0 0.00 0.07 0.07 98 1016.6
20191022024013 60 107 0.0 1.0 0.00 0.07 0.07 98 1016.5
20191022023509 60 204 0.0 0.0 0.00 0.07 0.07 98 1016.5
20191022023043 60 205 0.0 0.0 0.00 0.07 0.07 98 1016.6
20191022022508 60 205 0.0 1.0 0.00 0.07 0.07 98 1016.6
20191022021528 60 205 0.0 1.0 0.00 0.07 0.07 98 1016.3
20191022020507 60 204 0.0 1.0 0.00 0.07 0.07 98 1016.2
20191022015507 60 338 0.0 1.0 0.00 0.07 0.07 98 1016.1
20191022014508 60 89 0.0 2.0 0.00 0.07 0.07 98 1016.1
20191022013506 60 110 0.0 1.0 0.00 0.07 0.07 98 1016.5
20191022013019 59 107 0.0 1.0 0.00 0.07 0.07 98 1016.4
20191022012511 59 107 0.0 0.0 0.00 0.07 0.07 98 1016.4
20191022012012 59 107 0.0 1.0 0.00 0.07 0.07 98 1016.6
20191022011509 59 107 0.0 1.0 0.00 0.07 0.07 98 1016.4
20191022011005 59 106 0.0 1.0 0.00 0.07 0.07 98 1016.5
20191022010508 59 106 0.0 1.0 0.00 0.07 0.07 98 1016.3
20191022010005 59 106 0.0 2.0 0.00 0.07 0.07 98 1016.6
20191022005505 59 105 0.0 2.0 0.00 0.07 0.07 98 1016.6
20191022005005 59 133 1.0 1.0 0.00 0.07 0.07 98 1016.7
20191022004512 59 127 0.0 1.0 0.00 0.07 0.07 98 1016.7
20191022004009 59 125 1.0 1.0 0.00 0.07 0.07 98 1016.7
20191022003007 59 94 0.0 1.0 0.00 0.07 0.07 98 1016.5
20191022002009 59 87 1.0 3.0 0.00 0.07 0.07 98 1016.7
20191022001008 59 129 0.0 1.0 0.00 0.07 0.07 98 1016.5
20191022000025 59 131 0.0 1.0 0.00 0.07 0.07 98 1016.6
20191021235002 59 130 0.0 1.0 0.00 0.07 0.07 98 1016.4
20191021234503 59 255 0.0 2.0 0.00 0.07 0.07 98 1016.2
20191021234006 59 274 2.0 2.0 0.00 0.07 0.07 98 1016.3
20191021233503 59 276 2.0 2.0 0.00 0.07 0.07 98 1016.3
20191021233010 59 111 0.0 1.0 0.00 0.07 0.07 98 1016.3
20191021232501 59 112 0.0 1.0 0.00 0.07 0.07 98 1016.1
20191021232006 59 112 1.0 1.0 0.00 0.07 0.07 98 1016.2
20191021231503 59 136 0.0 1.0 0.00 0.07 0.07 98 1016.3
20191021231004 59 136 0.0 1.0 0.00 0.07 0.07 98 1016.3
20191021230503 59 136 0.0 1.0 0.00 0.07 0.07 98 1016.2
20191021230005 59 104 0.0 1.0 0.00 0.07 0.07 98 1016.3
20191021225501 59 104 0.0 1.0 0.00 0.07 0.07 98 1016.3
20191021224709 59 103 0.0 1.0 0.00 0.07 0.07 98 1016.1
20191021223600 59 103 0.0 1.0 0.00 0.07 0.07 98 1016.0
20191021223503 59 103 0.0 2.0 0.00 0.07 0.07 98 1016.0
20191021222559 59 101 1.0 3.0 0.00 0.07 0.07 98 1015.6
20191021222107 59 107 2.0 3.0 0.00 0.07 0.07 97 1015.8
20191021221643 59 119 0.0 1.0 0.00 0.07 0.07 97 1015.9
20191021221105 59 120 0.0 1.0 0.00 0.07 0.07 97 1016.0
20191021220558 59 120 0.0 1.0 0.00 0.07 0.07 97 1016.1
20191021220145 59 93 0.0 1.0 0.00 0.07 0.07 97 1016.1
20191021215558 59 93 0.0 1.0 0.00 0.07 0.07 97 1016.0
20191021215103 59 93 0.0 1.0 0.00 0.07 0.07 97 1015.9
20191021214735 59 92 0.0 2.0 0.00 0.07 0.07 97 1016.1
20191021214105 59 92 1.0 2.0 0.00 0.07 0.07 97 1016.0
20191021213557 60 110 0.0 1.0 0.01 0.07 0.07 97 1016.0
20191021213236 59 148 0.0 1.0 0.01 0.07 0.07 97 1016.1
20191021212104 59 162 0.0 1.0 0.01 0.07 0.07 97 1016.1
20191021211102 59 107 0.0 3.0 0.01 0.07 0.07 97 1016.2
20191021210156 60 93 0.0 1.0 0.01 0.07 0.07 97 1016.1
20191021205058 59 84 0.0 1.0 0.01 0.07 0.07 97 1016.3
20191021204056 59 83 0.0 2.0 0.01 0.07 0.07 97 1016.2
20191021203556 59 82 1.0 2.0 0.00 0.06 0.06 97 1016.3
20191021203126 59 139 0.0 3.0 0.00 0.06 0.06 97 1016.3
20191021202554 59 84 2.0 3.0 0.00 0.06 0.06 97 1016.3
20191021202054 59 111 1.0 4.0 0.00 0.06 0.06 97 1016.3
20191021201734 59 93 2.0 4.0 0.00 0.06 0.06 97 1016.3
20191021201109 59 103 1.0 3.0 0.00 0.06 0.06 97 1016.1
20191021200610 59 108 2.0 3.0 0.00 0.06 0.06 97 1016.0
20191021200135 59 98 2.0 3.0 0.00 0.06 0.06 97 1016.1
20191021195553 59 103 2.0 3.0 0.00 0.06 0.06 97 1016.1
20191021195108 59 136 1.0 2.0 0.00 0.06 0.06 97 1016.3
20191021194713 59 94 1.0 2.0 0.00 0.06 0.06 97 1016.2
20191021193551 59 102 1.0 3.0 0.01 0.06 0.06 97 1016.0
20191021192551 59 102 3.0 4.0 0.01 0.06 0.06 97 1015.8
20191021191709 59 127 0.0 3.0 0.01 0.06 0.06 97 1016.2
20191021190550 59 109 2.0 6.0 0.01 0.06 0.06 97 1016.1
20191021185549 59 130 3.0 5.0 0.01 0.06 0.06 97 1016.3
20191021185050 59 97 3.0 5.0 0.01 0.06 0.06 97 1016.3
20191021184712 59 90 3.0 5.0 0.01 0.06 0.06 97 1016.3
20191021184049 59 116 2.0 4.0 0.01 0.06 0.06 97 1016.4
20191021183549 59 95 2.0 4.0 0.00 0.05 0.05 97 1016.4